sensor_id;sensor_type;location;lat;lon;timestamp;temperature;humidity
18880;DHT22;9572;52.378;13.404;2022-07-06T00:01:51;17.70;99.90
18880;DHT22;9572;52.378;13.404;2022-07-06T00:04:19;17.80;99.90
18880;DHT22;9572;52.378;13.404;2022-07-06T00:06:47;17.80;99.90
18880;DHT22;9572;52.378;13.404;2022-07-06T00:09:14;17.80;99.90
18880;DHT22;9572;52.378;13.404;2022-07-06T00:11:42;17.80;99.90
18880;DHT22;9572;52.378;13.404;2022-07-06T00:14:09;17.70;99.90
18880;DHT22;9572;52.378;13.404;2022-07-06T00:16:36;17.60;99.90
18880;DHT22;9572;52.378;13.404;2022-07-06T00:19:03;17.70;99.90
18880;DHT22;9572;52.378;13.404;2022-07-06T00:21:30;17.60;99.90
18880;DHT22;9572;52.378;13.404;2022-07-06T00:23:58;17.60;99.90
18880;DHT22;9572;52.378;13.404;2022-07-06T00:26:25;17.50;99.90
18880;DHT22;9572;52.378;13.404;2022-07-06T00:28:52;17.50;99.90
18880;DHT22;9572;52.378;13.404;2022-07-06T00:31:19;17.50;99.90
18880;DHT22;9572;52.378;13.404;2022-07-06T00:33:46;17.40;99.90
18880;DHT22;9572;52.378;13.404;2022-07-06T00:36:15;17.40;99.90
18880;DHT22;9572;52.378;13.404;2022-07-06T00:38:48;17.40;99.90
18880;DHT22;9572;52.378;13.404;2022-07-06T00:41:16;17.50;99.90
18880;DHT22;9572;52.378;13.404;2022-07-06T00:43:49;17.50;99.90
18880;DHT22;9572;52.378;13.404;2022-07-06T00:46:16;17.50;99.90
18880;DHT22;9572;52.378;13.404;2022-07-06T00:48:43;17.50;99.90
18880;DHT22;9572;52.378;13.404;2022-07-06T00:51:12;17.50;99.90
18880;DHT22;9572;52.378;13.404;2022-07-06T00:53:42;17.50;99.90
18880;DHT22;9572;52.378;13.404;2022-07-06T00:56:09;17.40;99.90
18880;DHT22;9572;52.378;13.404;2022-07-06T00:58:38;17.50;99.90
18880;DHT22;9572;52.378;13.404;2022-07-06T01:01:07;17.50;99.90
18880;DHT22;9572;52.378;13.404;2022-07-06T01:03:43;17.50;99.90
18880;DHT22;9572;52.378;13.404;2022-07-06T01:06:12;17.50;99.90
18880;DHT22;9572;52.378;13.404;2022-07-06T01:08:45;17.40;99.90
18880;DHT22;9572;52.378;13.404;2022-07-06T01:11:20;17.40;99.90
18880;DHT22;9572;52.378;13.404;2022-07-06T01:13:51;17.40;99.90
18880;DHT22;9572;52.378;13.404;2022-07-06T01:16:18;17.40;99.90
18880;DHT22;9572;52.378;13.404;2022-07-06T01:18:50;17.40;99.90
18880;DHT22;9572;52.378;13.404;2022-07-06T01:21:23;17.30;99.90
18880;DHT22;9572;52.378;13.404;2022-07-06T01:23:52;17.30;99.90
18880;DHT22;9572;52.378;13.404;2022-07-06T01:26:23;17.30;99.90
18880;DHT22;9572;52.378;13.404;2022-07-06T01:28:51;17.20;99.90
18880;DHT22;9572;52.378;13.404;2022-07-06T01:31:20;17.20;99.90
18880;DHT22;9572;52.378;13.404;2022-07-06T01:33:49;17.00;99.90
18880;DHT22;9572;52.378;13.404;2022-07-06T01:36:19;17.00;99.90
18880;DHT22;9572;52.378;13.404;2022-07-06T01:38:50;17.00;99.90
18880;DHT22;9572;52.378;13.404;2022-07-06T01:41:19;16.90;99.90
18880;DHT22;9572;52.378;13.404;2022-07-06T01:43:48;16.90;99.90
18880;DHT22;9572;52.378;13.404;2022-07-06T01:46:17;16.80;99.90
18880;DHT22;9572;52.378;13.404;2022-07-06T01:48:50;16.80;99.90
18880;DHT22;9572;52.378;13.404;2022-07-06T01:51:20;16.70;99.90
18880;DHT22;9572;52.378;13.404;2022-07-06T01:53:52;16.70;99.90
18880;DHT22;9572;52.378;13.404;2022-07-06T01:56:20;16.70;99.90
18880;DHT22;9572;52.378;13.404;2022-07-06T01:58:49;16.60;99.90
18880;DHT22;9572;52.378;13.404;2022-07-06T02:01:25;16.60;99.90
18880;DHT22;9572;52.378;13.404;2022-07-06T02:03:52;16.60;99.90
18880;DHT22;9572;52.378;13.404;2022-07-06T02:06:20;16.60;99.90
18880;DHT22;9572;52.378;13.404;2022-07-06T02:08:53;16.70;99.90
18880;DHT22;9572;52.378;13.404;2022-07-06T02:11:21;16.70;99.90
18880;DHT22;9572;52.378;13.404;2022-07-06T02:13:50;16.70;99.90
18880;DHT22;9572;52.378;13.404;2022-07-06T02:16:18;16.70;99.90
18880;DHT22;9572;52.378;13.404;2022-07-06T02:18:48;16.70;99.90
18880;DHT22;9572;52.378;13.404;2022-07-06T02:21:18;16.80;99.90
18880;DHT22;9572;52.378;13.404;2022-07-06T02:23:53;16.80;99.90
18880;DHT22;9572;52.378;13.404;2022-07-06T02:26:20;16.80;99.90
18880;DHT22;9572;52.378;13.404;2022-07-06T02:28:48;16.80;99.90
18880;DHT22;9572;52.378;13.404;2022-07-06T02:31:18;16.80;99.90
18880;DHT22;9572;52.378;13.404;2022-07-06T02:33:48;16.80;99.90
18880;DHT22;9572;52.378;13.404;2022-07-06T02:36:18;16.90;99.90
18880;DHT22;9572;52.378;13.404;2022-07-06T02:38:53;16.80;99.90
18880;DHT22;9572;52.378;13.404;2022-07-06T02:41:20;16.90;99.90
18880;DHT22;9572;52.378;13.404;2022-07-06T02:43:48;16.90;99.90
18880;DHT22;9572;52.378;13.404;2022-07-06T02:46:18;16.90;99.90
18880;DHT22;9572;52.378;13.404;2022-07-06T02:48:48;16.90;99.90
18880;DHT22;9572;52.378;13.404;2022-07-06T02:51:18;16.90;99.90
18880;DHT22;9572;52.378;13.404;2022-07-06T02:53:45;16.90;99.90
18880;DHT22;9572;52.378;13.404;2022-07-06T02:56:14;16.90;99.90
18880;DHT22;9572;52.378;13.404;2022-07-06T02:58:41;16.80;99.90
18880;DHT22;9572;52.378;13.404;2022-07-06T03:01:08;16.80;99.90
18880;DHT22;9572;52.378;13.404;2022-07-06T03:03:38;16.80;99.90
18880;DHT22;9572;52.378;13.404;2022-07-06T03:06:08;16.80;99.90
18880;DHT22;9572;52.378;13.404;2022-07-06T03:08:39;16.80;99.90
18880;DHT22;9572;52.378;13.404;2022-07-06T03:11:08;16.80;99.90
18880;DHT22;9572;52.378;13.404;2022-07-06T03:13:43;16.80;99.90
18880;DHT22;9572;52.378;13.404;2022-07-06T03:16:10;16.80;99.90
18880;DHT22;9572;52.378;13.404;2022-07-06T03:18:37;16.80;99.90
18880;DHT22;9572;52.378;13.404;2022-07-06T03:21:07;16.80;99.90
18880;DHT22;9572;52.378;13.404;2022-07-06T03:23:38;16.70;99.90
18880;DHT22;9572;52.378;13.404;2022-07-06T03:26:07;16.70;99.90
18880;DHT22;9572;52.378;13.404;2022-07-06T03:28:34;16.70;99.90
18880;DHT22;9572;52.378;13.404;2022-07-06T03:31:03;16.60;99.90
18880;DHT22;9572;52.378;13.404;2022-07-06T03:33:30;16.40;99.90
18880;DHT22;9572;52.378;13.404;2022-07-06T03:35:58;16.30;99.90
18880;DHT22;9572;52.378;13.404;2022-07-06T03:38:27;16.30;99.90
18880;DHT22;9572;52.378;13.404;2022-07-06T03:40:53;16.20;99.90
18880;DHT22;9572;52.378;13.404;2022-07-06T03:43:20;16.10;99.90
18880;DHT22;9572;52.378;13.404;2022-07-06T03:45:48;16.00;99.90
18880;DHT22;9572;52.378;13.404;2022-07-06T03:48:16;16.00;99.90
18880;DHT22;9572;52.378;13.404;2022-07-06T03:50:48;16.00;99.90
18880;DHT22;9572;52.378;13.404;2022-07-06T03:53:17;16.00;99.90
18880;DHT22;9572;52.378;13.404;2022-07-06T03:55:47;16.00;99.90
18880;DHT22;9572;52.378;13.404;2022-07-06T03:58:28;16.00;99.90
18880;DHT22;9572;52.378;13.404;2022-07-06T04:00:57;16.00;99.90
18880;DHT22;9572;52.378;13.404;2022-07-06T04:03:30;16.00;99.90
18880;DHT22;9572;52.378;13.404;2022-07-06T04:05:58;16.00;99.90
18880;DHT22;9572;52.378;13.404;2022-07-06T04:08:27;16.10;99.90
18880;DHT22;9572;52.378;13.404;2022-07-06T04:10:57;16.10;99.90
18880;DHT22;9572;52.378;13.404;2022-07-06T04:13:28;16.10;99.90
18880;DHT22;9572;52.378;13.404;2022-07-06T04:15:57;16.20;99.90
18880;DHT22;9572;52.378;13.404;2022-07-06T04:18:29;16.30;99.90
18880;DHT22;9572;52.378;13.404;2022-07-06T04:20:58;16.30;99.90
18880;DHT22;9572;52.378;13.404;2022-07-06T04:23:28;16.30;99.90
18880;DHT22;9572;52.378;13.404;2022-07-06T04:25:55;16.40;99.90
18880;DHT22;9572;52.378;13.404;2022-07-06T04:28:22;16.40;99.90
18880;DHT22;9572;52.378;13.404;2022-07-06T04:30:49;16.40;99.90
18880;DHT22;9572;52.378;13.404;2022-07-06T04:33:18;16.50;99.90
18880;DHT22;9572;52.378;13.404;2022-07-06T04:35:48;16.50;99.90
18880;DHT22;9572;52.378;13.404;2022-07-06T04:38:18;16.60;99.90
18880;DHT22;9572;52.378;13.404;2022-07-06T04:40:45;16.60;99.90
18880;DHT22;9572;52.378;13.404;2022-07-06T04:43:13;16.60;99.90
18880;DHT22;9572;52.378;13.404;2022-07-06T04:45:40;16.70;99.90
18880;DHT22;9572;52.378;13.404;2022-07-06T04:48:07;16.80;99.90
18880;DHT22;9572;52.378;13.404;2022-07-06T04:50:37;16.80;99.90
18880;DHT22;9572;52.378;13.404;2022-07-06T04:53:05;16.90;99.90
18880;DHT22;9572;52.378;13.404;2022-07-06T04:55:32;16.90;99.90
18880;DHT22;9572;52.378;13.404;2022-07-06T04:57:59;17.00;99.90
18880;DHT22;9572;52.378;13.404;2022-07-06T05:00:28;17.20;99.90
18880;DHT22;9572;52.378;13.404;2022-07-06T05:02:56;17.30;99.90
18880;DHT22;9572;52.378;13.404;2022-07-06T05:05:27;17.30;99.90
18880;DHT22;9572;52.378;13.404;2022-07-06T05:07:57;17.20;99.90
18880;DHT22;9572;52.378;13.404;2022-07-06T05:10:26;17.30;99.90
18880;DHT22;9572;52.378;13.404;2022-07-06T05:12:56;17.30;99.90
18880;DHT22;9572;52.378;13.404;2022-07-06T05:15:24;17.40;99.90
18880;DHT22;9572;52.378;13.404;2022-07-06T05:17:50;17.60;99.90
18880;DHT22;9572;52.378;13.404;2022-07-06T05:20:18;17.80;99.90
18880;DHT22;9572;52.378;13.404;2022-07-06T05:22:46;17.90;99.90
18880;DHT22;9572;52.378;13.404;2022-07-06T05:25:12;18.10;99.90
18880;DHT22;9572;52.378;13.404;2022-07-06T05:27:41;18.00;99.90
18880;DHT22;9572;52.378;13.404;2022-07-06T05:30:09;18.00;99.90
18880;DHT22;9572;52.378;13.404;2022-07-06T05:32:36;17.90;99.90
18880;DHT22;9572;52.378;13.404;2022-07-06T05:35:03;17.80;99.90
18880;DHT22;9572;52.378;13.404;2022-07-06T05:37:31;17.80;99.90
18880;DHT22;9572;52.378;13.404;2022-07-06T05:39:57;17.90;99.90
18880;DHT22;9572;52.378;13.404;2022-07-06T05:42:24;18.20;99.90
18880;DHT22;9572;52.378;13.404;2022-07-06T05:44:56;18.50;99.90
18880;DHT22;9572;52.378;13.404;2022-07-06T05:47:23;18.80;99.90
18880;DHT22;9572;52.378;13.404;2022-07-06T05:50:07;18.80;99.90
18880;DHT22;9572;52.378;13.404;2022-07-06T05:52:41;18.70;99.90
18880;DHT22;9572;52.378;13.404;2022-07-06T05:55:09;18.30;99.90
18880;DHT22;9572;52.378;13.404;2022-07-06T05:57:36;18.30;99.90
18880;DHT22;9572;52.378;13.404;2022-07-06T06:00:06;18.60;99.90
18880;DHT22;9572;52.378;13.404;2022-07-06T06:02:37;18.80;99.90
18880;DHT22;9572;52.378;13.404;2022-07-06T06:05:05;19.10;99.90
18880;DHT22;9572;52.378;13.404;2022-07-06T06:07:33;19.60;99.90
18880;DHT22;9572;52.378;13.404;2022-07-06T06:10:01;19.90;99.90
18880;DHT22;9572;52.378;13.404;2022-07-06T06:12:28;20.20;99.90
18880;DHT22;9572;52.378;13.404;2022-07-06T06:14:55;20.30;99.90
18880;DHT22;9572;52.378;13.404;2022-07-06T06:17:24;20.50;99.90
18880;DHT22;9572;52.378;13.404;2022-07-06T06:19:51;20.70;99.90
18880;DHT22;9572;52.378;13.404;2022-07-06T06:22:18;20.90;99.90
18880;DHT22;9572;52.378;13.404;2022-07-06T06:24:45;20.90;99.90
18880;DHT22;9572;52.378;13.404;2022-07-06T06:27:12;20.90;99.90
18880;DHT22;9572;52.378;13.404;2022-07-06T06:29:39;21.00;99.90
18880;DHT22;9572;52.378;13.404;2022-07-06T06:32:07;20.70;99.90
18880;DHT22;9572;52.378;13.404;2022-07-06T06:34:35;20.50;99.90
18880;DHT22;9572;52.378;13.404;2022-07-06T06:37:03;20.60;99.90
18880;DHT22;9572;52.378;13.404;2022-07-06T06:39:30;20.80;99.90
18880;DHT22;9572;52.378;13.404;2022-07-06T06:41:56;21.20;99.90
18880;DHT22;9572;52.378;13.404;2022-07-06T06:44:23;21.30;99.90
18880;DHT22;9572;52.378;13.404;2022-07-06T06:46:50;21.30;99.90
18880;DHT22;9572;52.378;13.404;2022-07-06T06:49:18;21.40;99.90
18880;DHT22;9572;52.378;13.404;2022-07-06T06:51:46;21.60;99.90
18880;DHT22;9572;52.378;13.404;2022-07-06T06:54:13;21.80;99.90
18880;DHT22;9572;52.378;13.404;2022-07-06T06:56:40;21.90;99.90
18880;DHT22;9572;52.378;13.404;2022-07-06T06:59:07;22.10;99.90
18880;DHT22;9572;52.378;13.404;2022-07-06T07:01:34;22.10;99.90
18880;DHT22;9572;52.378;13.404;2022-07-06T07:04:01;22.10;99.90
18880;DHT22;9572;52.378;13.404;2022-07-06T07:06:28;22.20;99.90
18880;DHT22;9572;52.378;13.404;2022-07-06T07:08:56;22.10;99.90
18880;DHT22;9572;52.378;13.404;2022-07-06T07:11:23;22.20;99.90
18880;DHT22;9572;52.378;13.404;2022-07-06T07:13:50;21.90;99.90
18880;DHT22;9572;52.378;13.404;2022-07-06T07:16:17;21.70;99.90
18880;DHT22;9572;52.378;13.404;2022-07-06T07:18:44;21.90;99.90
18880;DHT22;9572;52.378;13.404;2022-07-06T07:21:11;22.30;99.90
18880;DHT22;9572;52.378;13.404;2022-07-06T07:23:38;22.20;99.90
18880;DHT22;9572;52.378;13.404;2022-07-06T07:26:06;22.00;99.90
18880;DHT22;9572;52.378;13.404;2022-07-06T07:28:33;22.00;99.90
18880;DHT22;9572;52.378;13.404;2022-07-06T07:31:00;22.20;99.90
18880;DHT22;9572;52.378;13.404;2022-07-06T07:33:27;22.50;99.90
18880;DHT22;9572;52.378;13.404;2022-07-06T07:35:54;22.80;99.90
18880;DHT22;9572;52.378;13.404;2022-07-06T07:38:21;23.00;99.90
18880;DHT22;9572;52.378;13.404;2022-07-06T07:40:48;22.80;99.90
18880;DHT22;9572;52.378;13.404;2022-07-06T07:43:16;22.90;99.90
18880;DHT22;9572;52.378;13.404;2022-07-06T07:45:43;23.00;99.90
18880;DHT22;9572;52.378;13.404;2022-07-06T07:48:10;23.10;99.90
18880;DHT22;9572;52.378;13.404;2022-07-06T07:50:37;23.10;99.90
18880;DHT22;9572;52.378;13.404;2022-07-06T07:53:04;23.00;99.90
18880;DHT22;9572;52.378;13.404;2022-07-06T07:55:31;22.80;99.90
18880;DHT22;9572;52.378;13.404;2022-07-06T07:57:58;22.70;99.90
18880;DHT22;9572;52.378;13.404;2022-07-06T08:00:26;22.80;99.90
18880;DHT22;9572;52.378;13.404;2022-07-06T08:02:54;23.10;99.90
18880;DHT22;9572;52.378;13.404;2022-07-06T08:05:21;23.20;99.90
18880;DHT22;9572;52.378;13.404;2022-07-06T08:07:48;23.10;99.90
18880;DHT22;9572;52.378;13.404;2022-07-06T08:10:14;22.80;99.90
18880;DHT22;9572;52.378;13.404;2022-07-06T08:12:41;22.40;99.90
18880;DHT22;9572;52.378;13.404;2022-07-06T08:15:09;21.90;99.90
18880;DHT22;9572;52.378;13.404;2022-07-06T08:17:37;22.00;99.90
18880;DHT22;9572;52.378;13.404;2022-07-06T08:20:05;22.40;99.90
18880;DHT22;9572;52.378;13.404;2022-07-06T08:25:02;23.20;99.90
18880;DHT22;9572;52.378;13.404;2022-07-06T08:27:29;23.20;99.90
18880;DHT22;9572;52.378;13.404;2022-07-06T08:29:55;23.30;99.90
18880;DHT22;9572;52.378;13.404;2022-07-06T08:32:22;23.00;99.90
18880;DHT22;9572;52.378;13.404;2022-07-06T08:34:51;22.70;99.90
18880;DHT22;9572;52.378;13.404;2022-07-06T08:37:18;22.80;99.90
18880;DHT22;9572;52.378;13.404;2022-07-06T08:39:45;22.70;99.90
18880;DHT22;9572;52.378;13.404;2022-07-06T08:42:12;23.00;99.90
18880;DHT22;9572;52.378;13.404;2022-07-06T08:44:42;23.90;99.90
18880;DHT22;9572;52.378;13.404;2022-07-06T08:47:10;24.60;99.90
18880;DHT22;9572;52.378;13.404;2022-07-06T08:49:38;24.40;99.90
18880;DHT22;9572;52.378;13.404;2022-07-06T08:52:07;23.80;99.90
18880;DHT22;9572;52.378;13.404;2022-07-06T08:54:34;23.10;99.90
18880;DHT22;9572;52.378;13.404;2022-07-06T08:57:03;22.70;99.90
18880;DHT22;9572;52.378;13.404;2022-07-06T08:59:30;22.40;99.90
18880;DHT22;9572;52.378;13.404;2022-07-06T09:01:57;22.50;99.90
18880;DHT22;9572;52.378;13.404;2022-07-06T09:04:25;22.40;99.90
18880;DHT22;9572;52.378;13.404;2022-07-06T09:06:53;22.30;99.90
18880;DHT22;9572;52.378;13.404;2022-07-06T09:09:23;22.10;99.90
18880;DHT22;9572;52.378;13.404;2022-07-06T09:11:51;21.90;99.90
18880;DHT22;9572;52.378;13.404;2022-07-06T09:14:18;21.80;99.90
18880;DHT22;9572;52.378;13.404;2022-07-06T09:16:46;21.70;99.90
18880;DHT22;9572;52.378;13.404;2022-07-06T09:19:17;21.40;99.90
18880;DHT22;9572;52.378;13.404;2022-07-06T09:21:44;21.20;99.90
18880;DHT22;9572;52.378;13.404;2022-07-06T09:24:12;20.90;99.90
18880;DHT22;9572;52.378;13.404;2022-07-06T09:26:41;20.80;99.90
18880;DHT22;9572;52.378;13.404;2022-07-06T09:29:07;20.70;99.90
18880;DHT22;9572;52.378;13.404;2022-07-06T09:31:35;20.70;99.90
18880;DHT22;9572;52.378;13.404;2022-07-06T09:34:04;20.70;99.90
18880;DHT22;9572;52.378;13.404;2022-07-06T09:36:40;20.70;99.90
18880;DHT22;9572;52.378;13.404;2022-07-06T09:39:18;20.70;99.90
18880;DHT22;9572;52.378;13.404;2022-07-06T09:41:47;20.80;99.90
18880;DHT22;9572;52.378;13.404;2022-07-06T09:44:20;20.80;99.90
18880;DHT22;9572;52.378;13.404;2022-07-06T09:46:47;20.70;99.90
18880;DHT22;9572;52.378;13.404;2022-07-06T09:49:17;20.70;99.90
18880;DHT22;9572;52.378;13.404;2022-07-06T09:51:45;20.70;99.90
18880;DHT22;9572;52.378;13.404;2022-07-06T09:54:12;20.80;99.90
18880;DHT22;9572;52.378;13.404;2022-07-06T09:56:42;20.80;99.40
18880;DHT22;9572;52.378;13.404;2022-07-06T09:59:11;20.90;99.90
18880;DHT22;9572;52.378;13.404;2022-07-06T10:01:39;21.00;99.90
18880;DHT22;9572;52.378;13.404;2022-07-06T10:04:06;21.30;99.90
18880;DHT22;9572;52.378;13.404;2022-07-06T10:06:34;21.60;99.90
18880;DHT22;9572;52.378;13.404;2022-07-06T10:09:02;21.70;99.90
18880;DHT22;9572;52.378;13.404;2022-07-06T10:11:33;21.80;99.90
18880;DHT22;9572;52.378;13.404;2022-07-06T10:14:01;21.80;99.90
18880;DHT22;9572;52.378;13.404;2022-07-06T10:16:29;21.60;99.90
18880;DHT22;9572;52.378;13.404;2022-07-06T10:18:57;21.60;99.90
18880;DHT22;9572;52.378;13.404;2022-07-06T10:21:25;21.60;99.90
18880;DHT22;9572;52.378;13.404;2022-07-06T10:23:56;21.60;99.90
18880;DHT22;9572;52.378;13.404;2022-07-06T10:26:25;21.60;99.90
18880;DHT22;9572;52.378;13.404;2022-07-06T10:28:53;21.40;99.90
18880;DHT22;9572;52.378;13.404;2022-07-06T10:31:20;21.30;99.90
18880;DHT22;9572;52.378;13.404;2022-07-06T10:33:51;21.40;99.90
18880;DHT22;9572;52.378;13.404;2022-07-06T10:36:19;21.50;99.90
18880;DHT22;9572;52.378;13.404;2022-07-06T10:38:49;21.70;99.80
18880;DHT22;9572;52.378;13.404;2022-07-06T10:41:16;21.80;98.50
18880;DHT22;9572;52.378;13.404;2022-07-06T10:43:44;21.90;98.30
18880;DHT22;9572;52.378;13.404;2022-07-06T10:46:13;22.50;97.60
18880;DHT22;9572;52.378;13.404;2022-07-06T10:48:41;22.70;98.10
18880;DHT22;9572;52.378;13.404;2022-07-06T10:51:13;23.00;98.80
18880;DHT22;9572;52.378;13.404;2022-07-06T10:53:56;23.30;97.40
18880;DHT22;9572;52.378;13.404;2022-07-06T10:56:32;23.40;98.10
18880;DHT22;9572;52.378;13.404;2022-07-06T10:59:02;23.30;98.80
18880;DHT22;9572;52.378;13.404;2022-07-06T11:01:29;23.20;98.00
18880;DHT22;9572;52.378;13.404;2022-07-06T11:04:06;23.00;98.20
18880;DHT22;9572;52.378;13.404;2022-07-06T11:06:35;22.90;98.10
18880;DHT22;9572;52.378;13.404;2022-07-06T11:09:04;22.60;99.00
18880;DHT22;9572;52.378;13.404;2022-07-06T11:11:40;22.40;99.90
18880;DHT22;9572;52.378;13.404;2022-07-06T11:14:09;22.30;99.40
18880;DHT22;9572;52.378;13.404;2022-07-06T11:16:37;22.60;98.20
18880;DHT22;9572;52.378;13.404;2022-07-06T11:19:09;23.40;98.00
18880;DHT22;9572;52.378;13.404;2022-07-06T11:21:40;23.70;96.60
18880;DHT22;9572;52.378;13.404;2022-07-06T11:24:11;23.80;97.20
18880;DHT22;9572;52.378;13.404;2022-07-06T11:26:39;23.80;97.00
18880;DHT22;9572;52.378;13.404;2022-07-06T11:29:09;23.40;96.80
18880;DHT22;9572;52.378;13.404;2022-07-06T11:31:37;23.10;97.30
18880;DHT22;9572;52.378;13.404;2022-07-06T11:34:04;22.70;97.80
18880;DHT22;9572;52.378;13.404;2022-07-06T11:36:32;22.40;98.10
18880;DHT22;9572;52.378;13.404;2022-07-06T11:39:00;22.30;98.60
18880;DHT22;9572;52.378;13.404;2022-07-06T11:41:27;22.30;98.70
18880;DHT22;9572;52.378;13.404;2022-07-06T11:43:54;22.40;99.10
18880;DHT22;9572;52.378;13.404;2022-07-06T11:46:25;22.30;98.80
18880;DHT22;9572;52.378;13.404;2022-07-06T11:48:54;22.40;99.00
18880;DHT22;9572;52.378;13.404;2022-07-06T11:51:22;22.70;98.70
18880;DHT22;9572;52.378;13.404;2022-07-06T11:53:54;22.80;97.90
18880;DHT22;9572;52.378;13.404;2022-07-06T11:56:23;23.00;97.60
18880;DHT22;9572;52.378;13.404;2022-07-06T11:58:53;23.10;98.20
18880;DHT22;9572;52.378;13.404;2022-07-06T12:01:21;23.10;98.70
18880;DHT22;9572;52.378;13.404;2022-07-06T12:03:49;23.00;98.80
18880;DHT22;9572;52.378;13.404;2022-07-06T12:06:18;23.10;99.60
18880;DHT22;9572;52.378;13.404;2022-07-06T12:08:48;23.20;98.30
18880;DHT22;9572;52.378;13.404;2022-07-06T12:11:20;23.10;97.20
18880;DHT22;9572;52.378;13.404;2022-07-06T12:13:49;23.00;97.10
18880;DHT22;9572;52.378;13.404;2022-07-06T12:16:17;22.90;97.40
18880;DHT22;9572;52.378;13.404;2022-07-06T12:18:46;22.80;98.20
18880;DHT22;9572;52.378;13.404;2022-07-06T12:21:15;22.80;98.00
18880;DHT22;9572;52.378;13.404;2022-07-06T12:23:45;22.60;98.10
18880;DHT22;9572;52.378;13.404;2022-07-06T12:26:13;22.50;98.40
18880;DHT22;9572;52.378;13.404;2022-07-06T12:28:41;22.30;99.10
18880;DHT22;9572;52.378;13.404;2022-07-06T12:31:10;22.30;99.10
18880;DHT22;9572;52.378;13.404;2022-07-06T12:33:37;22.30;99.20
18880;DHT22;9572;52.378;13.404;2022-07-06T12:36:12;22.30;99.20
18880;DHT22;9572;52.378;13.404;2022-07-06T12:38:44;22.60;99.90
18880;DHT22;9572;52.378;13.404;2022-07-06T12:41:27;22.90;98.80
18880;DHT22;9572;52.378;13.404;2022-07-06T12:44:04;23.30;98.80
18880;DHT22;9572;52.378;13.404;2022-07-06T12:46:34;23.60;98.20
18880;DHT22;9572;52.378;13.404;2022-07-06T12:49:13;23.90;97.40
18880;DHT22;9572;52.378;13.404;2022-07-06T12:51:58;24.00;97.00
18880;DHT22;9572;52.378;13.404;2022-07-06T12:54:27;23.70;97.90
18880;DHT22;9572;52.378;13.404;2022-07-06T12:57:06;23.60;98.80
18880;DHT22;9572;52.378;13.404;2022-07-06T12:59:36;23.50;97.80
18880;DHT22;9572;52.378;13.404;2022-07-06T13:02:05;23.60;98.70
18880;DHT22;9572;52.378;13.404;2022-07-06T13:04:33;23.50;97.70
18880;DHT22;9572;52.378;13.404;2022-07-06T13:07:01;23.20;98.10
18880;DHT22;9572;52.378;13.404;2022-07-06T13:09:28;23.10;98.70
18880;DHT22;9572;52.378;13.404;2022-07-06T13:11:56;23.00;98.60
18880;DHT22;9572;52.378;13.404;2022-07-06T13:14:23;23.00;98.30
18880;DHT22;9572;52.378;13.404;2022-07-06T13:16:50;23.10;98.00
18880;DHT22;9572;52.378;13.404;2022-07-06T13:19:18;23.20;97.60
18880;DHT22;9572;52.378;13.404;2022-07-06T13:21:45;23.30;96.60
18880;DHT22;9572;52.378;13.404;2022-07-06T13:24:12;23.40;96.50
18880;DHT22;9572;52.378;13.404;2022-07-06T13:26:39;23.40;97.60
18880;DHT22;9572;52.378;13.404;2022-07-06T13:29:06;23.40;96.20
18880;DHT22;9572;52.378;13.404;2022-07-06T13:31:36;23.20;97.00
18880;DHT22;9572;52.378;13.404;2022-07-06T13:34:04;23.30;97.10
18880;DHT22;9572;52.378;13.404;2022-07-06T13:36:33;23.40;97.30
18880;DHT22;9572;52.378;13.404;2022-07-06T13:39:00;23.30;96.50
18880;DHT22;9572;52.378;13.404;2022-07-06T13:41:27;23.00;97.20
18880;DHT22;9572;52.378;13.404;2022-07-06T13:43:54;22.90;97.50
18880;DHT22;9572;52.378;13.404;2022-07-06T13:46:21;22.80;97.40
18880;DHT22;9572;52.378;13.404;2022-07-06T13:48:48;22.70;97.70
18880;DHT22;9572;52.378;13.404;2022-07-06T13:51:16;22.70;97.70
18880;DHT22;9572;52.378;13.404;2022-07-06T13:53:44;22.70;97.80
18880;DHT22;9572;52.378;13.404;2022-07-06T13:56:11;22.70;97.70
18880;DHT22;9572;52.378;13.404;2022-07-06T13:58:38;22.60;97.60
18880;DHT22;9572;52.378;13.404;2022-07-06T14:01:05;22.60;97.90
18880;DHT22;9572;52.378;13.404;2022-07-06T14:03:32;22.60;98.20
18880;DHT22;9572;52.378;13.404;2022-07-06T14:06:01;22.70;97.90
18880;DHT22;9572;52.378;13.404;2022-07-06T14:08:28;22.70;98.50
18880;DHT22;9572;52.378;13.404;2022-07-06T14:10:56;22.70;98.00
18880;DHT22;9572;52.378;13.404;2022-07-06T14:13:24;22.60;98.40
18880;DHT22;9572;52.378;13.404;2022-07-06T14:15:51;22.70;98.30
18880;DHT22;9572;52.378;13.404;2022-07-06T14:18:19;22.60;97.70
18880;DHT22;9572;52.378;13.404;2022-07-06T14:20:46;22.40;97.60
18880;DHT22;9572;52.378;13.404;2022-07-06T14:23:14;22.30;97.90
18880;DHT22;9572;52.378;13.404;2022-07-06T14:25:42;22.30;97.90
18880;DHT22;9572;52.378;13.404;2022-07-06T14:28:11;22.40;97.80
18880;DHT22;9572;52.378;13.404;2022-07-06T14:30:40;22.40;98.30
18880;DHT22;9572;52.378;13.404;2022-07-06T14:33:09;22.50;98.10
18880;DHT22;9572;52.378;13.404;2022-07-06T14:35:37;22.60;98.30
18880;DHT22;9572;52.378;13.404;2022-07-06T14:38:05;22.50;98.10
18880;DHT22;9572;52.378;13.404;2022-07-06T14:40:33;22.50;98.20
18880;DHT22;9572;52.378;13.404;2022-07-06T14:43:01;22.40;98.40
18880;DHT22;9572;52.378;13.404;2022-07-06T14:45:29;22.30;99.50
18880;DHT22;9572;52.378;13.404;2022-07-06T14:47:56;22.00;98.70
18880;DHT22;9572;52.378;13.404;2022-07-06T14:50:24;21.80;98.90
18880;DHT22;9572;52.378;13.404;2022-07-06T14:52:52;21.70;98.60
18880;DHT22;9572;52.378;13.404;2022-07-06T14:55:19;21.50;99.10
18880;DHT22;9572;52.378;13.404;2022-07-06T14:57:46;21.40;99.40
18880;DHT22;9572;52.378;13.404;2022-07-06T15:00:14;21.30;99.20
18880;DHT22;9572;52.378;13.404;2022-07-06T15:02:43;21.20;99.40
18880;DHT22;9572;52.378;13.404;2022-07-06T15:05:10;21.20;99.90
18880;DHT22;9572;52.378;13.404;2022-07-06T15:07:37;21.30;99.70
18880;DHT22;9572;52.378;13.404;2022-07-06T15:10:05;21.30;99.70
18880;DHT22;9572;52.378;13.404;2022-07-06T15:12:32;21.10;99.60
18880;DHT22;9572;52.378;13.404;2022-07-06T15:14:59;21.10;99.60
18880;DHT22;9572;52.378;13.404;2022-07-06T15:17:26;20.90;99.90
18880;DHT22;9572;52.378;13.404;2022-07-06T15:19:55;20.90;99.90
18880;DHT22;9572;52.378;13.404;2022-07-06T15:22:22;20.80;99.90
18880;DHT22;9572;52.378;13.404;2022-07-06T15:24:49;20.80;99.90
18880;DHT22;9572;52.378;13.404;2022-07-06T15:27:16;20.80;99.90
18880;DHT22;9572;52.378;13.404;2022-07-06T15:29:43;20.90;99.90
18880;DHT22;9572;52.378;13.404;2022-07-06T15:32:10;20.80;99.90
18880;DHT22;9572;52.378;13.404;2022-07-06T15:34:37;20.70;99.90
18880;DHT22;9572;52.378;13.404;2022-07-06T15:37:05;20.70;99.90
18880;DHT22;9572;52.378;13.404;2022-07-06T15:39:32;20.70;99.90
18880;DHT22;9572;52.378;13.404;2022-07-06T15:41:59;20.70;99.90